Airfield :
LOGIN :

Register | Disclaimer

   EN    FR    IT 

 










Legend :    VFR   Marginal VFR   IFR   Intensive IFR   Very Intensive IFR
Visi :
Ceiling :
>= 8 km
>= 3000ft
5 to 8 km
1000 to 3000 ft
1500m to 5 km
500 to 1000 ft
800 to 1500m
200 to 500 ft
< 800m
< 200 ft
Symbols :   Thunderstorms  Fog  Heavy snow  Heavy precipitations  Wind > 20 kt
SIGMETs :     Misc.  Thunderstorms  Icing  Turbulence  Mountain Waves  Volcanic Ashes






- Airport Elevation : 353 ft
- IATA code : ZAG


LDZA - Zagreb Pleso

CURRENT METAR :
  • 250400Z 23003KT 200V260 CAVOK 11/09 Q1027 NOSIG

EXPIRED METARs :
  • 250330Z 25003KT CAVOK 11/09 Q1027 NOSIG
  • 250300Z 24004KT 200V280 CAVOK 11/09 Q1027 NOSIG
  • 250230Z 24003KT CAVOK 11/10 Q1027 NOSIG
  • 250200Z 23004KT CAVOK 12/10 Q1027 NOSIG
  • 250130Z 21003KT 180V250 9999 FEW065TCU 12/10 Q1027 NOSIG

TAF TAF LDZA
Valid from the 25 at 00:00 until the 26 at 00:00 UTC


242325Z 2500/2600 VRB02KT CAVOK TX23/2513Z TN11/2504Z
PROB40
TEMPO 2513/2521 32015KT TSRA FEW045CB
BECMG 2521/2523 02008KT
ATIS : +385 1 6-259-214



MET'MAP, your aeronautical weather chart ! - Copyright ORBIFLY December 2007 - Disclaimer

ORBIFLY MET'MAP TEAM :

Programming & Development : Alexandra Zaïnal
Concept & original design : Baudouin d'Aumeries
Assistance for programming : Marc-Olivier Méhu
Technical & hardware support : Manuel Goepfert

Contact : metmap@orbifly.com




SOURCES & CREDITS :

   NOAA